sensor_id;sensor_type;location;lat;lon;timestamp;temperature;humidity
35894;DHT22;21994;48.204;16.516;2023-06-24T00:02:13;18.90;99.90
35894;DHT22;21994;48.204;16.516;2023-06-24T00:04:39;18.80;99.90
35894;DHT22;21994;48.204;16.516;2023-06-24T00:07:05;18.80;99.90
35894;DHT22;21994;48.204;16.516;2023-06-24T00:09:32;18.80;99.90
35894;DHT22;21994;48.204;16.516;2023-06-24T00:11:58;18.80;99.90
35894;DHT22;21994;48.204;16.516;2023-06-24T00:14:25;18.70;99.90
35894;DHT22;21994;48.204;16.516;2023-06-24T00:16:55;18.70;99.90
35894;DHT22;21994;48.204;16.516;2023-06-24T00:19:25;18.70;99.90
35894;DHT22;21994;48.204;16.516;2023-06-24T00:21:52;18.60;99.90
35894;DHT22;21994;48.204;16.516;2023-06-24T00:24:22;18.70;99.90
35894;DHT22;21994;48.204;16.516;2023-06-24T00:26:51;18.70;99.90
35894;DHT22;21994;48.204;16.516;2023-06-24T00:29:18;18.60;99.90
35894;DHT22;21994;48.204;16.516;2023-06-24T00:31:44;18.60;99.90
35894;DHT22;21994;48.204;16.516;2023-06-24T00:34:10;18.60;99.90
35894;DHT22;21994;48.204;16.516;2023-06-24T00:36:36;18.60;99.90
35894;DHT22;21994;48.204;16.516;2023-06-24T00:39:03;18.60;99.90
35894;DHT22;21994;48.204;16.516;2023-06-24T00:41:33;18.60;99.90
35894;DHT22;21994;48.204;16.516;2023-06-24T00:44:00;18.60;99.90
35894;DHT22;21994;48.204;16.516;2023-06-24T00:46:26;18.50;99.90
35894;DHT22;21994;48.204;16.516;2023-06-24T00:48:55;18.50;99.90
35894;DHT22;21994;48.204;16.516;2023-06-24T00:51:22;18.60;99.90
35894;DHT22;21994;48.204;16.516;2023-06-24T00:53:53;18.50;99.90
35894;DHT22;21994;48.204;16.516;2023-06-24T00:56:21;18.50;99.90
35894;DHT22;21994;48.204;16.516;2023-06-24T00:58:52;18.50;99.90
35894;DHT22;21994;48.204;16.516;2023-06-24T01:01:18;18.50;99.90
35894;DHT22;21994;48.204;16.516;2023-06-24T01:03:45;18.50;99.90
35894;DHT22;21994;48.204;16.516;2023-06-24T01:06:12;18.50;99.90
35894;DHT22;21994;48.204;16.516;2023-06-24T01:08:38;18.50;99.90
35894;DHT22;21994;48.204;16.516;2023-06-24T01:11:04;18.50;99.90
35894;DHT22;21994;48.204;16.516;2023-06-24T01:13:30;18.50;99.90
35894;DHT22;21994;48.204;16.516;2023-06-24T01:16:00;18.50;99.90
35894;DHT22;21994;48.204;16.516;2023-06-24T01:18:41;18.50;99.90
35894;DHT22;21994;48.204;16.516;2023-06-24T01:23:58;18.40;99.90
35894;DHT22;21994;48.204;16.516;2023-06-24T01:32:37;18.40;99.90
35894;DHT22;21994;48.204;16.516;2023-06-24T01:35:09;18.40;99.90
35894;DHT22;21994;48.204;16.516;2023-06-24T01:37:42;18.40;99.90
35894;DHT22;21994;48.204;16.516;2023-06-24T01:40:12;18.40;99.90
35894;DHT22;21994;48.204;16.516;2023-06-24T01:42:42;18.40;99.90
35894;DHT22;21994;48.204;16.516;2023-06-24T01:45:28;18.40;99.90
35894;DHT22;21994;48.204;16.516;2023-06-24T01:48:06;18.40;99.90
35894;DHT22;21994;48.204;16.516;2023-06-24T01:50:35;18.40;99.90
35894;DHT22;21994;48.204;16.516;2023-06-24T01:53:05;18.40;99.90
35894;DHT22;21994;48.204;16.516;2023-06-24T01:55:32;18.40;99.90
35894;DHT22;21994;48.204;16.516;2023-06-24T01:58:00;18.30;99.90
35894;DHT22;21994;48.204;16.516;2023-06-24T02:00:27;18.40;99.90
35894;DHT22;21994;48.204;16.516;2023-06-24T02:02:54;18.40;99.90
35894;DHT22;21994;48.204;16.516;2023-06-24T02:05:22;18.40;99.90
35894;DHT22;21994;48.204;16.516;2023-06-24T02:07:49;18.40;99.90
35894;DHT22;21994;48.204;16.516;2023-06-24T02:10:17;18.30;99.90
35894;DHT22;21994;48.204;16.516;2023-06-24T02:12:45;18.30;99.90
35894;DHT22;21994;48.204;16.516;2023-06-24T02:15:12;18.30;99.90
35894;DHT22;21994;48.204;16.516;2023-06-24T02:17:39;18.30;99.90
35894;DHT22;21994;48.204;16.516;2023-06-24T02:20:07;18.20;99.90
35894;DHT22;21994;48.204;16.516;2023-06-24T02:22:38;18.20;99.90
35894;DHT22;21994;48.204;16.516;2023-06-24T02:25:06;18.20;99.90
35894;DHT22;21994;48.204;16.516;2023-06-24T02:27:34;18.20;99.90
35894;DHT22;21994;48.204;16.516;2023-06-24T02:30:01;18.20;99.90
35894;DHT22;21994;48.204;16.516;2023-06-24T02:32:28;18.10;99.90
35894;DHT22;21994;48.204;16.516;2023-06-24T02:34:54;18.20;99.90
35894;DHT22;21994;48.204;16.516;2023-06-24T02:37:20;18.10;99.90
35894;DHT22;21994;48.204;16.516;2023-06-24T02:39:46;18.20;99.90
35894;DHT22;21994;48.204;16.516;2023-06-24T02:42:12;18.20;99.90
35894;DHT22;21994;48.204;16.516;2023-06-24T02:44:39;18.10;99.90
35894;DHT22;21994;48.204;16.516;2023-06-24T02:47:09;18.10;99.90
35894;DHT22;21994;48.204;16.516;2023-06-24T02:49:36;18.10;99.90
35894;DHT22;21994;48.204;16.516;2023-06-24T02:52:03;18.00;99.90
35894;DHT22;21994;48.204;16.516;2023-06-24T02:54:29;18.10;99.90
35894;DHT22;21994;48.204;16.516;2023-06-24T02:56:55;18.10;99.90
35894;DHT22;21994;48.204;16.516;2023-06-24T02:59:24;18.10;99.90
35894;DHT22;21994;48.204;16.516;2023-06-24T03:01:51;18.10;99.90
35894;DHT22;21994;48.204;16.516;2023-06-24T03:04:18;18.00;99.90
35894;DHT22;21994;48.204;16.516;2023-06-24T03:06:45;18.00;99.90
35894;DHT22;21994;48.204;16.516;2023-06-24T03:09:12;18.10;99.90
35894;DHT22;21994;48.204;16.516;2023-06-24T03:11:44;18.10;99.90
35894;DHT22;21994;48.204;16.516;2023-06-24T03:14:10;18.00;99.90
35894;DHT22;21994;48.204;16.516;2023-06-24T03:16:37;18.00;99.90
35894;DHT22;21994;48.204;16.516;2023-06-24T03:19:04;18.00;99.90
35894;DHT22;21994;48.204;16.516;2023-06-24T03:21:30;18.00;99.90
35894;DHT22;21994;48.204;16.516;2023-06-24T03:23:56;18.00;99.90
35894;DHT22;21994;48.204;16.516;2023-06-24T03:26:31;18.00;99.90
35894;DHT22;21994;48.204;16.516;2023-06-24T03:28:58;18.00;99.90
35894;DHT22;21994;48.204;16.516;2023-06-24T03:31:24;18.00;99.90
35894;DHT22;21994;48.204;16.516;2023-06-24T03:33:50;17.90;99.90
35894;DHT22;21994;48.204;16.516;2023-06-24T03:36:16;17.90;99.90
35894;DHT22;21994;48.204;16.516;2023-06-24T03:38:42;17.90;99.90
35894;DHT22;21994;48.204;16.516;2023-06-24T03:41:08;17.90;99.90
35894;DHT22;21994;48.204;16.516;2023-06-24T03:43:33;17.80;99.90
35894;DHT22;21994;48.204;16.516;2023-06-24T03:45:59;17.90;99.90
35894;DHT22;21994;48.204;16.516;2023-06-24T03:48:25;17.80;99.90
35894;DHT22;21994;48.204;16.516;2023-06-24T03:50:51;17.80;99.90
35894;DHT22;21994;48.204;16.516;2023-06-24T03:53:17;17.80;99.90
35894;DHT22;21994;48.204;16.516;2023-06-24T03:55:43;17.80;99.90
35894;DHT22;21994;48.204;16.516;2023-06-24T03:58:09;17.80;99.90
35894;DHT22;21994;48.204;16.516;2023-06-24T04:00:35;17.80;99.90
35894;DHT22;21994;48.204;16.516;2023-06-24T04:03:06;17.80;99.90
35894;DHT22;21994;48.204;16.516;2023-06-24T04:05:33;17.70;99.90
35894;DHT22;21994;48.204;16.516;2023-06-24T04:07:59;17.70;99.90
35894;DHT22;21994;48.204;16.516;2023-06-24T04:10:25;17.70;99.90
35894;DHT22;21994;48.204;16.516;2023-06-24T04:12:51;17.70;99.90
35894;DHT22;21994;48.204;16.516;2023-06-24T04:15:17;17.60;99.90
35894;DHT22;21994;48.204;16.516;2023-06-24T04:17:43;17.60;99.90
35894;DHT22;21994;48.204;16.516;2023-06-24T04:20:09;17.60;99.90
35894;DHT22;21994;48.204;16.516;2023-06-24T04:22:37;17.60;99.90
35894;DHT22;21994;48.204;16.516;2023-06-24T04:25:05;17.60;99.90
35894;DHT22;21994;48.204;16.516;2023-06-24T04:27:32;17.60;99.90
35894;DHT22;21994;48.204;16.516;2023-06-24T04:30:02;17.50;99.90
35894;DHT22;21994;48.204;16.516;2023-06-24T04:32:29;17.50;99.90
35894;DHT22;21994;48.204;16.516;2023-06-24T04:34:54;17.50;99.90
35894;DHT22;21994;48.204;16.516;2023-06-24T04:37:20;17.50;99.90
35894;DHT22;21994;48.204;16.516;2023-06-24T04:39:46;17.50;99.90
35894;DHT22;21994;48.204;16.516;2023-06-24T04:42:14;17.50;99.90
35894;DHT22;21994;48.204;16.516;2023-06-24T04:44:40;17.50;99.90
35894;DHT22;21994;48.204;16.516;2023-06-24T04:47:06;17.60;99.90
35894;DHT22;21994;48.204;16.516;2023-06-24T04:49:32;17.60;99.90
35894;DHT22;21994;48.204;16.516;2023-06-24T04:52:00;17.60;99.90
35894;DHT22;21994;48.204;16.516;2023-06-24T04:54:27;17.70;99.90
35894;DHT22;21994;48.204;16.516;2023-06-24T04:56:52;17.70;99.90
35894;DHT22;21994;48.204;16.516;2023-06-24T04:59:21;17.70;99.90
35894;DHT22;21994;48.204;16.516;2023-06-24T05:01:47;17.80;99.90
35894;DHT22;21994;48.204;16.516;2023-06-24T05:04:13;17.80;99.90
35894;DHT22;21994;48.204;16.516;2023-06-24T05:06:39;17.80;99.90
35894;DHT22;21994;48.204;16.516;2023-06-24T05:09:04;17.80;99.90
35894;DHT22;21994;48.204;16.516;2023-06-24T05:11:30;17.80;99.90
35894;DHT22;21994;48.204;16.516;2023-06-24T05:13:56;17.80;99.90
35894;DHT22;21994;48.204;16.516;2023-06-24T05:16:23;17.80;99.90
35894;DHT22;21994;48.204;16.516;2023-06-24T05:18:50;17.80;99.90
35894;DHT22;21994;48.204;16.516;2023-06-24T05:21:16;17.80;99.90
35894;DHT22;21994;48.204;16.516;2023-06-24T05:23:42;17.80;99.90
35894;DHT22;21994;48.204;16.516;2023-06-24T05:26:07;17.70;99.90
35894;DHT22;21994;48.204;16.516;2023-06-24T05:28:33;17.80;99.90
35894;DHT22;21994;48.204;16.516;2023-06-24T05:30:59;17.80;99.90
35894;DHT22;21994;48.204;16.516;2023-06-24T05:33:25;17.90;99.90
35894;DHT22;21994;48.204;16.516;2023-06-24T05:35:51;18.00;99.90
35894;DHT22;21994;48.204;16.516;2023-06-24T05:38:17;18.10;99.90
35894;DHT22;21994;48.204;16.516;2023-06-24T05:40:42;18.10;99.90
35894;DHT22;21994;48.204;16.516;2023-06-24T05:43:08;18.00;99.90
35894;DHT22;21994;48.204;16.516;2023-06-24T05:45:34;18.10;99.90
35894;DHT22;21994;48.204;16.516;2023-06-24T05:48:02;18.10;99.90
35894;DHT22;21994;48.204;16.516;2023-06-24T05:50:28;18.20;99.90
35894;DHT22;21994;48.204;16.516;2023-06-24T05:52:54;18.30;99.90
35894;DHT22;21994;48.204;16.516;2023-06-24T05:55:20;18.40;99.90
35894;DHT22;21994;48.204;16.516;2023-06-24T05:57:46;18.30;99.90
35894;DHT22;21994;48.204;16.516;2023-06-24T06:00:12;18.30;99.90
35894;DHT22;21994;48.204;16.516;2023-06-24T06:02:38;18.20;99.90
35894;DHT22;21994;48.204;16.516;2023-06-24T06:05:04;18.20;99.90
35894;DHT22;21994;48.204;16.516;2023-06-24T06:07:30;18.20;99.90
35894;DHT22;21994;48.204;16.516;2023-06-24T06:09:56;18.30;99.90
35894;DHT22;21994;48.204;16.516;2023-06-24T06:12:22;18.20;99.90
35894;DHT22;21994;48.204;16.516;2023-06-24T06:14:47;18.20;99.90
35894;DHT22;21994;48.204;16.516;2023-06-24T06:17:14;18.10;99.90
35894;DHT22;21994;48.204;16.516;2023-06-24T06:19:40;18.00;99.90
35894;DHT22;21994;48.204;16.516;2023-06-24T06:22:07;18.00;99.90
35894;DHT22;21994;48.204;16.516;2023-06-24T06:24:33;17.90;99.90
35894;DHT22;21994;48.204;16.516;2023-06-24T06:26:59;17.90;99.90
35894;DHT22;21994;48.204;16.516;2023-06-24T06:29:25;17.80;99.90
35894;DHT22;21994;48.204;16.516;2023-06-24T06:31:51;17.70;99.90
35894;DHT22;21994;48.204;16.516;2023-06-24T06:34:21;17.60;99.90
35894;DHT22;21994;48.204;16.516;2023-06-24T06:36:46;17.60;99.90
35894;DHT22;21994;48.204;16.516;2023-06-24T06:39:12;17.60;99.90
35894;DHT22;21994;48.204;16.516;2023-06-24T06:41:38;17.60;99.90
35894;DHT22;21994;48.204;16.516;2023-06-24T06:44:04;17.50;99.90
35894;DHT22;21994;48.204;16.516;2023-06-24T06:46:30;17.40;99.90
35894;DHT22;21994;48.204;16.516;2023-06-24T06:48:56;17.40;99.90
35894;DHT22;21994;48.204;16.516;2023-06-24T06:51:22;17.40;99.90
35894;DHT22;21994;48.204;16.516;2023-06-24T06:53:49;17.50;99.90
35894;DHT22;21994;48.204;16.516;2023-06-24T06:56:22;17.60;99.90
35894;DHT22;21994;48.204;16.516;2023-06-24T06:58:53;17.60;99.90
35894;DHT22;21994;48.204;16.516;2023-06-24T07:01:19;17.50;99.90
35894;DHT22;21994;48.204;16.516;2023-06-24T07:03:45;17.50;99.90
35894;DHT22;21994;48.204;16.516;2023-06-24T07:06:11;17.60;99.90
35894;DHT22;21994;48.204;16.516;2023-06-24T07:08:36;17.60;99.90
35894;DHT22;21994;48.204;16.516;2023-06-24T07:11:03;17.60;99.90
35894;DHT22;21994;48.204;16.516;2023-06-24T07:13:29;17.60;99.90
35894;DHT22;21994;48.204;16.516;2023-06-24T07:15:54;17.60;99.90
35894;DHT22;21994;48.204;16.516;2023-06-24T07:18:20;17.70;99.90
35894;DHT22;21994;48.204;16.516;2023-06-24T07:20:46;17.80;99.90
35894;DHT22;21994;48.204;16.516;2023-06-24T07:23:12;17.80;99.90
35894;DHT22;21994;48.204;16.516;2023-06-24T07:25:38;18.00;99.90
35894;DHT22;21994;48.204;16.516;2023-06-24T07:28:04;18.20;99.90
35894;DHT22;21994;48.204;16.516;2023-06-24T07:30:30;18.20;99.90
35894;DHT22;21994;48.204;16.516;2023-06-24T07:32:55;18.40;99.90
35894;DHT22;21994;48.204;16.516;2023-06-24T07:35:21;18.40;99.90
35894;DHT22;21994;48.204;16.516;2023-06-24T07:37:47;18.50;99.90
35894;DHT22;21994;48.204;16.516;2023-06-24T07:40:13;18.60;99.90
35894;DHT22;21994;48.204;16.516;2023-06-24T07:42:41;18.60;99.90
35894;DHT22;21994;48.204;16.516;2023-06-24T07:45:07;18.70;99.90
35894;DHT22;21994;48.204;16.516;2023-06-24T07:47:35;18.70;99.90
35894;DHT22;21994;48.204;16.516;2023-06-24T07:50:01;18.60;99.90
35894;DHT22;21994;48.204;16.516;2023-06-24T07:52:27;18.40;99.90
35894;DHT22;21994;48.204;16.516;2023-06-24T07:54:53;18.40;99.90
35894;DHT22;21994;48.204;16.516;2023-06-24T07:57:19;18.50;99.90
35894;DHT22;21994;48.204;16.516;2023-06-24T07:59:45;18.40;99.90
35894;DHT22;21994;48.204;16.516;2023-06-24T08:02:11;18.30;99.90
35894;DHT22;21994;48.204;16.516;2023-06-24T08:04:36;18.20;99.90
35894;DHT22;21994;48.204;16.516;2023-06-24T08:07:03;18.30;99.90
35894;DHT22;21994;48.204;16.516;2023-06-24T08:09:30;18.30;99.90
35894;DHT22;21994;48.204;16.516;2023-06-24T08:11:55;18.20;99.90
35894;DHT22;21994;48.204;16.516;2023-06-24T08:14:21;18.20;99.90
35894;DHT22;21994;48.204;16.516;2023-06-24T08:16:47;18.20;99.90
35894;DHT22;21994;48.204;16.516;2023-06-24T08:19:13;18.10;99.90
35894;DHT22;21994;48.204;16.516;2023-06-24T08:21:39;18.10;99.90
35894;DHT22;21994;48.204;16.516;2023-06-24T08:24:06;18.10;99.90
35894;DHT22;21994;48.204;16.516;2023-06-24T08:26:32;18.00;99.90
35894;DHT22;21994;48.204;16.516;2023-06-24T08:28:58;18.00;99.90
35894;DHT22;21994;48.204;16.516;2023-06-24T08:31:25;18.00;99.90
35894;DHT22;21994;48.204;16.516;2023-06-24T08:33:54;18.00;99.90
35894;DHT22;21994;48.204;16.516;2023-06-24T08:36:25;18.10;99.90
35894;DHT22;21994;48.204;16.516;2023-06-24T08:38:52;18.00;99.90
35894;DHT22;21994;48.204;16.516;2023-06-24T08:41:18;18.00;99.90
35894;DHT22;21994;48.204;16.516;2023-06-24T08:43:44;18.00;99.90
35894;DHT22;21994;48.204;16.516;2023-06-24T08:46:12;18.00;99.90
35894;DHT22;21994;48.204;16.516;2023-06-24T08:48:39;18.00;99.90
35894;DHT22;21994;48.204;16.516;2023-06-24T08:51:09;17.90;99.90
35894;DHT22;21994;48.204;16.516;2023-06-24T08:53:38;17.70;99.90
35894;DHT22;21994;48.204;16.516;2023-06-24T08:56:04;17.50;99.90
35894;DHT22;21994;48.204;16.516;2023-06-24T08:58:40;17.40;99.90
35894;DHT22;21994;48.204;16.516;2023-06-24T09:01:06;17.30;99.90
35894;DHT22;21994;48.204;16.516;2023-06-24T09:03:35;17.20;99.90
35894;DHT22;21994;48.204;16.516;2023-06-24T09:06:01;17.10;99.90
35894;DHT22;21994;48.204;16.516;2023-06-24T09:08:27;17.10;99.90
35894;DHT22;21994;48.204;16.516;2023-06-24T09:10:54;17.00;99.90
35894;DHT22;21994;48.204;16.516;2023-06-24T09:13:21;17.00;99.90
35894;DHT22;21994;48.204;16.516;2023-06-24T09:15:48;17.10;99.90
35894;DHT22;21994;48.204;16.516;2023-06-24T09:18:14;17.10;99.90
35894;DHT22;21994;48.204;16.516;2023-06-24T09:20:43;17.20;99.90
35894;DHT22;21994;48.204;16.516;2023-06-24T09:23:11;17.30;99.90
35894;DHT22;21994;48.204;16.516;2023-06-24T09:25:37;17.40;99.90
35894;DHT22;21994;48.204;16.516;2023-06-24T09:28:03;17.60;99.90
35894;DHT22;21994;48.204;16.516;2023-06-24T09:30:32;17.70;99.90
35894;DHT22;21994;48.204;16.516;2023-06-24T09:32:58;17.70;99.90
35894;DHT22;21994;48.204;16.516;2023-06-24T09:35:25;17.70;99.90
35894;DHT22;21994;48.204;16.516;2023-06-24T09:37:56;17.70;99.90
35894;DHT22;21994;48.204;16.516;2023-06-24T09:40:24;17.70;99.90
35894;DHT22;21994;48.204;16.516;2023-06-24T09:42:58;17.80;99.90
35894;DHT22;21994;48.204;16.516;2023-06-24T09:45:27;17.90;99.90
35894;DHT22;21994;48.204;16.516;2023-06-24T09:47:54;18.10;99.90
35894;DHT22;21994;48.204;16.516;2023-06-24T09:50:21;18.20;99.90
35894;DHT22;21994;48.204;16.516;2023-06-24T09:52:49;18.20;99.90
35894;DHT22;21994;48.204;16.516;2023-06-24T09:55:17;18.40;99.90
35894;DHT22;21994;48.204;16.516;2023-06-24T09:57:49;18.50;99.90
35894;DHT22;21994;48.204;16.516;2023-06-24T10:00:18;18.50;99.90
35894;DHT22;21994;48.204;16.516;2023-06-24T10:02:45;18.60;99.90
35894;DHT22;21994;48.204;16.516;2023-06-24T10:05:13;18.70;99.90
35894;DHT22;21994;48.204;16.516;2023-06-24T10:07:40;18.70;99.90
35894;DHT22;21994;48.204;16.516;2023-06-24T10:10:06;18.90;99.90
35894;DHT22;21994;48.204;16.516;2023-06-24T10:12:37;19.00;99.90
35894;DHT22;21994;48.204;16.516;2023-06-24T10:15:04;19.10;99.90
35894;DHT22;21994;48.204;16.516;2023-06-24T10:17:31;19.00;99.90
35894;DHT22;21994;48.204;16.516;2023-06-24T10:19:56;18.90;99.90
35894;DHT22;21994;48.204;16.516;2023-06-24T10:22:23;18.80;99.90
35894;DHT22;21994;48.204;16.516;2023-06-24T10:24:54;18.80;99.90
35894;DHT22;21994;48.204;16.516;2023-06-24T10:27:21;18.90;99.90
35894;DHT22;21994;48.204;16.516;2023-06-24T10:29:49;18.80;99.90
35894;DHT22;21994;48.204;16.516;2023-06-24T10:32:19;18.70;99.90
35894;DHT22;21994;48.204;16.516;2023-06-24T10:34:54;18.70;99.90
35894;DHT22;21994;48.204;16.516;2023-06-24T10:37:25;18.70;99.90
35894;DHT22;21994;48.204;16.516;2023-06-24T10:39:56;18.80;99.90
35894;DHT22;21994;48.204;16.516;2023-06-24T10:42:42;18.80;99.90
35894;DHT22;21994;48.204;16.516;2023-06-24T10:47:57;18.70;99.90
35894;DHT22;21994;48.204;16.516;2023-06-24T10:50:24;18.70;99.90
35894;DHT22;21994;48.204;16.516;2023-06-24T10:52:52;18.60;99.90
35894;DHT22;21994;48.204;16.516;2023-06-24T10:55:25;18.50;99.90
35894;DHT22;21994;48.204;16.516;2023-06-24T10:57:52;18.40;99.90
35894;DHT22;21994;48.204;16.516;2023-06-24T11:00:20;18.50;99.90
35894;DHT22;21994;48.204;16.516;2023-06-24T11:02:47;18.60;99.90
35894;DHT22;21994;48.204;16.516;2023-06-24T11:05:13;18.70;99.90
35894;DHT22;21994;48.204;16.516;2023-06-24T11:07:39;18.70;99.90
35894;DHT22;21994;48.204;16.516;2023-06-24T11:10:15;18.70;99.90
35894;DHT22;21994;48.204;16.516;2023-06-24T11:12:42;18.70;99.90
35894;DHT22;21994;48.204;16.516;2023-06-24T11:15:11;18.70;99.90
35894;DHT22;21994;48.204;16.516;2023-06-24T11:17:38;18.80;99.90
35894;DHT22;21994;48.204;16.516;2023-06-24T11:20:10;18.80;99.90
35894;DHT22;21994;48.204;16.516;2023-06-24T11:22:39;18.70;99.90
35894;DHT22;21994;48.204;16.516;2023-06-24T11:25:06;18.80;99.90
35894;DHT22;21994;48.204;16.516;2023-06-24T11:27:40;18.80;99.90
35894;DHT22;21994;48.204;16.516;2023-06-24T11:30:06;18.90;99.90
35894;DHT22;21994;48.204;16.516;2023-06-24T11:32:41;18.90;99.90
35894;DHT22;21994;48.204;16.516;2023-06-24T11:35:13;18.90;99.90
35894;DHT22;21994;48.204;16.516;2023-06-24T11:37:46;18.90;99.90
35894;DHT22;21994;48.204;16.516;2023-06-24T11:40:13;19.00;99.90
35894;DHT22;21994;48.204;16.516;2023-06-24T11:42:42;19.20;99.90
35894;DHT22;21994;48.204;16.516;2023-06-24T11:45:13;19.10;99.90
35894;DHT22;21994;48.204;16.516;2023-06-24T11:47:40;19.10;99.90
35894;DHT22;21994;48.204;16.516;2023-06-24T11:50:07;19.10;99.90
35894;DHT22;21994;48.204;16.516;2023-06-24T11:52:39;19.10;99.90
35894;DHT22;21994;48.204;16.516;2023-06-24T11:55:25;19.10;99.90
35894;DHT22;21994;48.204;16.516;2023-06-24T12:00:35;19.10;99.90
35894;DHT22;21994;48.204;16.516;2023-06-24T12:03:07;19.20;99.90
35894;DHT22;21994;48.204;16.516;2023-06-24T12:05:35;19.30;99.90
35894;DHT22;21994;48.204;16.516;2023-06-24T12:08:11;19.30;99.90
35894;DHT22;21994;48.204;16.516;2023-06-24T12:10:39;19.30;99.90
35894;DHT22;21994;48.204;16.516;2023-06-24T12:13:05;19.30;99.90
35894;DHT22;21994;48.204;16.516;2023-06-24T12:15:32;19.30;99.90
35894;DHT22;21994;48.204;16.516;2023-06-24T12:17:58;19.30;99.90
35894;DHT22;21994;48.204;16.516;2023-06-24T12:20:25;19.20;99.90
35894;DHT22;21994;48.204;16.516;2023-06-24T12:22:51;19.20;99.90
35894;DHT22;21994;48.204;16.516;2023-06-24T12:25:18;19.30;99.90
35894;DHT22;21994;48.204;16.516;2023-06-24T12:27:44;19.30;99.90
35894;DHT22;21994;48.204;16.516;2023-06-24T12:30:11;19.30;99.90
35894;DHT22;21994;48.204;16.516;2023-06-24T12:32:37;19.20;99.90
35894;DHT22;21994;48.204;16.516;2023-06-24T12:35:06;19.30;99.90
35894;DHT22;21994;48.204;16.516;2023-06-24T12:37:35;19.40;99.90
35894;DHT22;21994;48.204;16.516;2023-06-24T12:40:01;19.50;99.90
35894;DHT22;21994;48.204;16.516;2023-06-24T12:42:30;19.50;99.90
35894;DHT22;21994;48.204;16.516;2023-06-24T12:44:56;19.50;99.90
35894;DHT22;21994;48.204;16.516;2023-06-24T12:47:22;19.80;99.90
35894;DHT22;21994;48.204;16.516;2023-06-24T12:49:49;19.80;99.90
35894;DHT22;21994;48.204;16.516;2023-06-24T12:52:15;19.80;99.90
35894;DHT22;21994;48.204;16.516;2023-06-24T12:54:42;19.80;99.90
35894;DHT22;21994;48.204;16.516;2023-06-24T12:57:07;19.70;99.90
35894;DHT22;21994;48.204;16.516;2023-06-24T12:59:33;19.70;99.90
35894;DHT22;21994;48.204;16.516;2023-06-24T13:01:59;19.60;99.90
35894;DHT22;21994;48.204;16.516;2023-06-24T13:04:26;19.50;99.90
35894;DHT22;21994;48.204;16.516;2023-06-24T13:06:52;19.50;99.90
35894;DHT22;21994;48.204;16.516;2023-06-24T13:09:18;19.40;99.90
35894;DHT22;21994;48.204;16.516;2023-06-24T13:11:44;19.30;99.90
35894;DHT22;21994;48.204;16.516;2023-06-24T13:14:10;19.20;99.90
35894;DHT22;21994;48.204;16.516;2023-06-24T13:16:39;19.20;99.90
35894;DHT22;21994;48.204;16.516;2023-06-24T13:19:05;19.20;99.90
35894;DHT22;21994;48.204;16.516;2023-06-24T13:21:31;19.20;99.90
35894;DHT22;21994;48.204;16.516;2023-06-24T13:23:57;19.20;99.90
35894;DHT22;21994;48.204;16.516;2023-06-24T13:26:22;19.10;99.90
35894;DHT22;21994;48.204;16.516;2023-06-24T13:28:49;19.00;99.90
35894;DHT22;21994;48.204;16.516;2023-06-24T13:31:15;19.00;99.90
35894;DHT22;21994;48.204;16.516;2023-06-24T13:33:41;19.00;99.90
35894;DHT22;21994;48.204;16.516;2023-06-24T13:36:08;19.00;99.90
35894;DHT22;21994;48.204;16.516;2023-06-24T13:38:51;19.00;99.90
35894;DHT22;21994;48.204;16.516;2023-06-24T13:41:17;19.00;99.90
35894;DHT22;21994;48.204;16.516;2023-06-24T13:43:43;19.00;99.90
35894;DHT22;21994;48.204;16.516;2023-06-24T13:46:09;19.10;99.90
35894;DHT22;21994;48.204;16.516;2023-06-24T13:48:34;19.20;99.90
35894;DHT22;21994;48.204;16.516;2023-06-24T13:51:00;19.30;99.90
35894;DHT22;21994;48.204;16.516;2023-06-24T13:53:26;19.30;99.90
35894;DHT22;21994;48.204;16.516;2023-06-24T13:55:55;19.30;99.90
35894;DHT22;21994;48.204;16.516;2023-06-24T13:58:20;19.30;99.90
35894;DHT22;21994;48.204;16.516;2023-06-24T14:00:46;19.30;99.90
35894;DHT22;21994;48.204;16.516;2023-06-24T14:03:12;19.40;99.90
35894;DHT22;21994;48.204;16.516;2023-06-24T14:05:38;19.50;99.90
35894;DHT22;21994;48.204;16.516;2023-06-24T14:08:04;19.60;99.90
35894;DHT22;21994;48.204;16.516;2023-06-24T14:10:30;19.80;99.90
35894;DHT22;21994;48.204;16.516;2023-06-24T14:12:55;19.90;99.90
35894;DHT22;21994;48.204;16.516;2023-06-24T14:15:24;19.90;99.90
35894;DHT22;21994;48.204;16.516;2023-06-24T14:17:50;19.80;99.90
35894;DHT22;21994;48.204;16.516;2023-06-24T14:20:16;19.70;99.90
35894;DHT22;21994;48.204;16.516;2023-06-24T14:22:41;19.70;99.90
35894;DHT22;21994;48.204;16.516;2023-06-24T14:25:08;19.70;99.90
35894;DHT22;21994;48.204;16.516;2023-06-24T14:27:34;19.60;99.90
35894;DHT22;21994;48.204;16.516;2023-06-24T14:29:59;19.60;99.90
35894;DHT22;21994;48.204;16.516;2023-06-24T14:32:25;19.60;99.90
35894;DHT22;21994;48.204;16.516;2023-06-24T14:34:51;19.50;99.90
35894;DHT22;21994;48.204;16.516;2023-06-24T14:37:17;19.50;99.90
35894;DHT22;21994;48.204;16.516;2023-06-24T14:39:43;19.40;99.90
35894;DHT22;21994;48.204;16.516;2023-06-24T14:42:08;19.40;99.90
35894;DHT22;21994;48.204;16.516;2023-06-24T14:44:34;19.40;99.90
35894;DHT22;21994;48.204;16.516;2023-06-24T14:47:00;19.40;99.90
35894;DHT22;21994;48.204;16.516;2023-06-24T14:49:26;19.50;99.90
35894;DHT22;21994;48.204;16.516;2023-06-24T14:51:52;19.60;99.90
35894;DHT22;21994;48.204;16.516;2023-06-24T14:54:18;19.60;99.90
35894;DHT22;21994;48.204;16.516;2023-06-24T14:56:46;19.60;99.90
35894;DHT22;21994;48.204;16.516;2023-06-24T14:59:12;19.70;99.90
35894;DHT22;21994;48.204;16.516;2023-06-24T15:01:39;19.80;99.90
35894;DHT22;21994;48.204;16.516;2023-06-24T15:04:04;19.70;99.90
35894;DHT22;21994;48.204;16.516;2023-06-24T15:06:30;19.70;99.90
35894;DHT22;21994;48.204;16.516;2023-06-24T15:08:56;19.60;99.90
35894;DHT22;21994;48.204;16.516;2023-06-24T15:11:22;19.60;99.90
35894;DHT22;21994;48.204;16.516;2023-06-24T15:13:48;19.70;99.90
35894;DHT22;21994;48.204;16.516;2023-06-24T15:16:13;19.80;99.90
35894;DHT22;21994;48.204;16.516;2023-06-24T15:18:46;19.90;99.90
35894;DHT22;21994;48.204;16.516;2023-06-24T15:21:13;19.90;99.90
35894;DHT22;21994;48.204;16.516;2023-06-24T15:23:39;19.90;99.90
35894;DHT22;21994;48.204;16.516;2023-06-24T15:26:05;19.90;99.90
35894;DHT22;21994;48.204;16.516;2023-06-24T15:28:31;19.90;99.90
35894;DHT22;21994;48.204;16.516;2023-06-24T15:31:01;19.90;99.90